»·PEaware :: WAT306 A20-A39

WAT306 :: A20-A39

FLIGHT INFORMATION

Flight Status: Arrived
Operator:
Walker Air Transport
More flights by this operator :: More flights under this callsign
Pilot: Ethan S. (29221)
Aircraft: SOCATA TBM-900
(TBM9)
More flights by this aircraft type
Origin: A20 Sun Valley
United States
Destination: A39 Ak-Chin Regional
United States
More flights between these airports :: More routes between these airports
Route:
File this flight plan on PilotEdge
Remarks:
Altitude:
(Current/Filed)
9,500ft
Speed:
(Current/Filed)
280kts
Departed: 13-Oct-20 01:08 PM
Arrived: 13-Oct-20 01:54 PM
Distance/Time
Traveled:
179nm/0:46
Distance/Time
To Go:
Arrived

Flight Plot

Page will automatically refresh every two minutes.

Flight plan parsing failed; only flown route is shown


Map Options




Map Legend


Flown Route
Filed Route
Departure Airport
Arrival Airport
Navaid (VOR, NDB)
Fix

Horizontal Profiles

Position Reports

Time Latitude Longitude Heading Altitude Ground
Speed
13-Oct-20 13:05 35.009035 -114.565990 0 718ft 0kts
13-Oct-20 13:06 35.010648 -114.565130 108 726ft 6kts
13-Oct-20 13:07 34.989499 -114.565954 185 1097ft 143kts
13-Oct-20 13:08 34.946859 -114.551482 158 3233ft 149kts
13-Oct-20 13:09 34.909574 -114.532817 157 5560ft 145kts
13-Oct-20 13:10 34.872234 -114.513904 157 8100ft 146kts
13-Oct-20 13:11 34.830121 -114.492512 157 9640ft 205kts
13-Oct-20 13:12 34.768197 -114.461046 157 9588ft 254kts
13-Oct-20 13:14 34.700032 -114.426564 157 9576ft 262kts
13-Oct-20 13:15 34.630511 -114.391445 157 9563ft 264kts
13-Oct-20 13:16 34.560763 -114.356271 157 9555ft 264kts
13-Oct-20 13:17 34.491142 -114.321224 157 9554ft 264kts
13-Oct-20 13:18 34.421367 -114.286160 157 9554ft 264kts
13-Oct-20 13:19 34.351032 -114.250878 157 9554ft 264kts
13-Oct-20 13:20 34.280021 -114.215321 157 9554ft 264kts
13-Oct-20 13:21 34.207931 -114.179291 157 9554ft 264kts
13-Oct-20 13:22 34.135432 -114.143122 157 9554ft 264kts
13-Oct-20 13:23 34.063851 -114.107480 157 9554ft 264kts
13-Oct-20 13:24 33.992089 -114.071812 157 9552ft 264kts
13-Oct-20 13:25 33.921082 -114.036583 157 9552ft 264kts
13-Oct-20 13:26 33.862488 -113.988977 122 11184ft 198kts
13-Oct-20 13:27 33.835116 -113.938145 122 13602ft 212kts
13-Oct-20 13:28 33.796407 -113.865923 122 13550ft 263kts
13-Oct-20 13:29 33.753735 -113.786534 122 13537ft 272kts
13-Oct-20 13:29 33.717218 -113.718752 122 13538ft 273kts
13-Oct-20 13:31 33.666325 -113.624487 122 13541ft 273kts
13-Oct-20 13:31 33.629870 -113.557113 122 13544ft 273kts
13-Oct-20 13:33 33.578884 -113.463089 122 13546ft 273kts
13-Oct-20 13:33 33.542831 -113.396749 122 13546ft 273kts
13-Oct-20 13:34 33.499688 -113.317520 123 13545ft 273kts
13-Oct-20 13:35 33.457019 -113.239333 123 13545ft 273kts
13-Oct-20 13:36 33.414265 -113.161153 123 13545ft 273kts
13-Oct-20 13:37 33.371010 -113.082225 123 13545ft 273kts
13-Oct-20 13:38 33.327552 -113.003126 122 13509ft 275kts
13-Oct-20 13:39 33.283814 -112.923646 122 13509ft 275kts
13-Oct-20 13:40 33.240078 -112.844350 122 13505ft 274kts
13-Oct-20 13:41 33.196466 -112.765444 122 13005ft 278kts
13-Oct-20 13:42 33.151240 -112.683791 122 11704ft 284kts
13-Oct-20 13:43 33.105821 -112.601980 122 10394ft 284kts
13-Oct-20 13:44 33.060149 -112.519342 117 9067ft 284kts
13-Oct-20 13:45 33.047941 -112.423278 96 7773ft 283kts
13-Oct-20 13:46 33.037222 -112.327648 97 6485ft 282kts
13-Oct-20 13:47 33.026606 -112.233599 97 5216ft 274kts
13-Oct-20 13:48 33.016391 -112.143723 97 4002ft 264kts
13-Oct-20 13:49 33.006570 -112.057535 96 3068ft 245kts
13-Oct-20 13:50 32.977110 -112.001603 131 2912ft 174kts
13-Oct-20 13:51 32.953269 -111.956286 57 2698ft 137kts
13-Oct-20 13:52 32.978106 -111.934739 40 1599ft 94kts
13-Oct-20 13:53 32.991913 -111.920307 42 1288ft 15kts
13-Oct-20 13:54 32.991499 -111.919369 249 1290ft 0kts
13-Oct-20 13:55 32.991499 -111.919369 249 1290ft 0kts

Navigation Log

Ident Type
Flight plan parsing failed, navigation log unavailable